createdAt,value
2023-05-09T00:02:03.566Z,11.43
2023-05-09T00:04:30.660Z,11.93
2023-05-09T00:06:57.589Z,11.57
2023-05-09T00:09:24.800Z,11.68
2023-05-09T00:11:52.853Z,14.10
2023-05-09T00:14:19.688Z,11.70
2023-05-09T00:16:48.413Z,12.20
2023-05-09T00:19:15.239Z,12.40
2023-05-09T00:21:42.425Z,12.27
2023-05-09T00:24:09.281Z,11.07
2023-05-09T00:26:36.044Z,12.35
2023-05-09T00:29:02.938Z,11.95
2023-05-09T00:31:29.838Z,11.30
2023-05-09T00:33:58.429Z,10.95
2023-05-09T00:36:27.544Z,11.38
2023-05-09T00:38:54.336Z,12.57
2023-05-09T00:41:23.886Z,11.35
2023-05-09T00:43:50.748Z,12.07
2023-05-09T00:46:17.703Z,13.13
2023-05-09T00:48:45.797Z,12.35
2023-05-09T00:51:14.003Z,9.88
2023-05-09T00:53:40.885Z,11.57
2023-05-09T00:56:09.211Z,11.88
2023-05-09T00:58:37.547Z,11.73
2023-05-09T01:01:05.040Z,11.95
2023-05-09T01:03:32.530Z,12.63
2023-05-09T01:06:06.849Z,11.27
2023-05-09T01:08:46.950Z,12.65
2023-05-09T01:11:23.031Z,12.00
2023-05-09T01:13:59.320Z,13.68
2023-05-09T01:16:35.263Z,11.57
2023-05-09T01:19:12.636Z,12.60
2023-05-09T01:21:43.738Z,11.40
2023-05-09T01:24:42.094Z,13.07
2023-05-09T01:27:22.306Z,12.05
2023-05-09T01:29:55.654Z,10.75
2023-05-09T01:32:25.468Z,11.85
2023-05-09T01:35:05.730Z,11.05
2023-05-09T01:37:36.479Z,13.70
2023-05-09T01:40:08.506Z,11.73
2023-05-09T01:42:41.299Z,12.45
2023-05-09T01:45:12.699Z,12.70
2023-05-09T01:47:41.663Z,11.45
2023-05-09T01:50:11.543Z,10.40
2023-05-09T01:52:40.223Z,11.50
2023-05-09T01:55:09.954Z,11.40
2023-05-09T01:57:39.063Z,13.60
2023-05-09T02:00:08.164Z,13.50
2023-05-09T02:02:37.589Z,13.00
2023-05-09T02:05:06.714Z,12.20
2023-05-09T02:07:34.564Z,11.80
2023-05-09T02:10:05.114Z,10.10
2023-05-09T02:12:32.227Z,11.10
2023-05-09T02:14:59.278Z,9.63
2023-05-09T02:17:26.231Z,11.80
2023-05-09T02:19:54.426Z,13.80
2023-05-09T02:22:21.700Z,12.38
2023-05-09T02:24:48.574Z,12.23
2023-05-09T02:27:15.817Z,12.23
2023-05-09T02:29:46.413Z,11.93
2023-05-09T02:32:17.068Z,14.32
2023-05-09T02:34:46.427Z,13.30
2023-05-09T02:37:15.692Z,10.98
2023-05-09T02:39:44.861Z,11.38
2023-05-09T02:42:13.640Z,12.63
2023-05-09T02:44:41.717Z,11.02
2023-05-09T02:47:08.717Z,12.10
2023-05-09T02:49:35.728Z,12.88
2023-05-09T02:52:02.934Z,10.73
2023-05-09T02:54:31.196Z,13.60
2023-05-09T02:56:59.251Z,12.15
2023-05-09T02:59:29.648Z,13.80
2023-05-09T03:01:57.149Z,12.68
2023-05-09T03:04:25.647Z,12.10
2023-05-09T03:06:52.600Z,14.63
2023-05-09T03:09:20.848Z,11.88
2023-05-09T03:11:50.675Z,14.32
2023-05-09T03:14:17.469Z,11.85
2023-05-09T03:16:44.927Z,12.23
2023-05-09T03:19:11.848Z,14.27
2023-05-09T03:21:38.637Z,14.45
2023-05-09T03:24:09.514Z,12.52
2023-05-09T03:26:37.435Z,12.77
2023-05-09T03:29:05.852Z,12.18
2023-05-09T03:31:33.070Z,12.75
2023-05-09T03:34:01.193Z,13.05
2023-05-09T03:36:27.975Z,13.85
2023-05-09T03:38:55.803Z,13.30
2023-05-09T03:41:24.878Z,13.30
2023-05-09T03:43:51.640Z,13.50
2023-05-09T03:46:20.145Z,12.23
2023-05-09T03:48:47.239Z,11.90
2023-05-09T03:51:16.614Z,13.45
2023-05-09T03:53:45.557Z,12.98
2023-05-09T03:56:12.345Z,12.32
2023-05-09T03:58:39.145Z,13.48
2023-05-09T04:01:06.581Z,14.43
2023-05-09T04:03:35.114Z,11.68
2023-05-09T04:06:01.984Z,13.13
2023-05-09T04:08:28.908Z,12.02
2023-05-09T04:10:56.662Z,12.68
2023-05-09T04:13:23.770Z,13.10
2023-05-09T04:15:51.456Z,12.73
2023-05-09T04:18:18.307Z,11.20
2023-05-09T04:20:47.623Z,11.13
2023-05-09T04:23:17.419Z,12.88
2023-05-09T04:25:44.095Z,12.43
2023-05-09T04:28:10.961Z,10.32
2023-05-09T04:30:37.926Z,11.13
2023-05-09T04:33:05.603Z,10.93
2023-05-09T04:35:32.678Z,11.05
2023-05-09T04:38:00.815Z,10.88
2023-05-09T04:40:28.008Z,11.73
2023-05-09T04:42:54.881Z,10.88
2023-05-09T04:45:21.950Z,10.32
2023-05-09T04:47:49.617Z,10.90
2023-05-09T04:50:16.733Z,9.18
2023-05-09T04:52:43.493Z,10.73
2023-05-09T04:55:12.253Z,10.63
2023-05-09T04:57:39.478Z,10.23
2023-05-09T05:00:08.127Z,10.07
2023-05-09T05:02:35.013Z,10.23
2023-05-09T05:05:10.986Z,9.82
2023-05-09T05:07:38.618Z,10.30
2023-05-09T05:10:06.592Z,9.02
2023-05-09T05:12:34.826Z,7.45
2023-05-09T05:15:01.563Z,10.05
2023-05-09T05:17:29.582Z,9.68
2023-05-09T05:19:56.528Z,9.55
2023-05-09T05:22:24.449Z,10.23
2023-05-09T05:24:53.567Z,10.45
2023-05-09T05:27:21.862Z,9.35
2023-05-09T05:29:50.027Z,9.55
2023-05-09T05:32:16.855Z,9.93
2023-05-09T05:34:43.645Z,9.60
2023-05-09T05:37:10.555Z,9.35
2023-05-09T05:39:37.682Z,8.90
2023-05-09T05:42:04.518Z,9.73
2023-05-09T05:44:31.302Z,8.30
2023-05-09T05:47:03.370Z,9.75
2023-05-09T05:49:31.308Z,9.02
2023-05-09T05:51:58.118Z,10.18
2023-05-09T05:54:24.923Z,8.48
2023-05-09T05:56:54.033Z,8.95
2023-05-09T05:59:22.227Z,7.68
2023-05-09T06:01:49.559Z,8.85
2023-05-09T06:04:21.004Z,8.60
2023-05-09T06:09:14.635Z,7.38
2023-05-09T06:11:43.036Z,7.25
2023-05-09T06:14:21.767Z,7.43
2023-05-09T06:16:51.033Z,7.22
2023-05-09T06:19:30.751Z,6.97
2023-05-09T06:21:59.483Z,8.23
2023-05-09T06:24:35.570Z,6.50
2023-05-09T06:27:04.380Z,7.50
2023-05-09T06:29:32.252Z,7.47
2023-05-09T06:31:59.811Z,7.20
2023-05-09T06:34:28.024Z,7.28
2023-05-09T06:36:54.801Z,6.68
2023-05-09T06:39:21.603Z,7.88
2023-05-09T06:41:48.247Z,7.78
2023-05-09T06:44:15.037Z,7.85
2023-05-09T06:46:42.218Z,8.25
2023-05-09T06:49:09.075Z,7.25
2023-05-09T06:51:37.289Z,7.65
2023-05-09T06:54:04.192Z,7.30
2023-05-09T06:56:32.576Z,7.32
2023-05-09T06:58:59.372Z,7.07
2023-05-09T07:01:26.200Z,6.72
2023-05-09T07:03:53.171Z,7.95
2023-05-09T07:06:19.901Z,7.15
2023-05-09T07:08:47.888Z,7.15
2023-05-09T07:11:16.290Z,6.55
2023-05-09T07:13:43.011Z,8.15
2023-05-09T07:16:09.739Z,6.43
2023-05-09T07:18:36.516Z,7.25
2023-05-09T07:21:03.550Z,7.68
2023-05-09T07:23:30.342Z,8.27
2023-05-09T07:25:58.880Z,6.90
2023-05-09T07:28:26.182Z,7.07
2023-05-09T07:30:53.069Z,6.65
2023-05-09T07:33:19.847Z,5.70
2023-05-09T07:35:46.686Z,6.15
2023-05-09T07:38:13.895Z,7.60
2023-05-09T07:40:41.182Z,7.15
2023-05-09T07:43:09.416Z,6.47
2023-05-09T07:45:36.517Z,6.95
2023-05-09T07:48:03.530Z,6.68
2023-05-09T07:50:30.467Z,7.50
2023-05-09T07:52:57.480Z,6.20
2023-05-09T07:55:24.244Z,6.15
2023-05-09T07:57:51.207Z,7.50
2023-05-09T08:00:23.606Z,6.18
2023-05-09T08:02:51.043Z,7.68
2023-05-09T08:05:19.033Z,8.18
2023-05-09T08:07:46.233Z,7.65
2023-05-09T08:10:13.433Z,8.60
2023-05-09T08:12:40.834Z,8.10
2023-05-09T08:15:08.459Z,7.57
2023-05-09T08:17:37.010Z,8.10
2023-05-09T08:20:06.968Z,7.43
2023-05-09T08:22:33.922Z,9.00
2023-05-09T08:25:00.975Z,8.02
2023-05-09T08:27:27.634Z,7.30
2023-05-09T08:29:54.437Z,7.45
2023-05-09T08:32:21.183Z,6.97
2023-05-09T08:34:49.258Z,7.10
2023-05-09T08:37:16.122Z,7.00
2023-05-09T08:39:43.062Z,6.03
2023-05-09T08:42:10.562Z,6.80
2023-05-09T08:44:37.357Z,8.35
2023-05-09T08:47:05.021Z,6.85
2023-05-09T08:49:33.394Z,8.35
2023-05-09T08:52:01.822Z,7.75
2023-05-09T08:54:29.226Z,8.18
2023-05-09T08:56:56.166Z,8.43
2023-05-09T08:59:23.006Z,7.15
2023-05-09T09:01:50.966Z,7.80
2023-05-09T09:04:18.064Z,8.23
2023-05-09T09:06:46.398Z,7.35
2023-05-09T09:09:17.453Z,6.00
2023-05-09T09:11:45.332Z,8.77
2023-05-09T09:14:16.133Z,7.75
2023-05-09T09:16:45.051Z,8.18
2023-05-09T09:19:13.858Z,8.60
2023-05-09T09:21:45.813Z,7.03
2023-05-09T09:24:14.576Z,7.75
2023-05-09T09:26:50.221Z,6.95
2023-05-09T09:29:18.693Z,6.65
2023-05-09T09:31:47.175Z,7.47
2023-05-09T09:34:20.568Z,6.65
2023-05-09T09:36:48.539Z,7.60
2023-05-09T09:39:16.869Z,6.45
2023-05-09T09:41:45.129Z,6.53
2023-05-09T09:44:13.655Z,6.40
2023-05-09T09:46:45.329Z,6.40
2023-05-09T09:49:13.466Z,5.07
2023-05-09T09:51:40.788Z,5.60
2023-05-09T09:54:08.992Z,5.35
2023-05-09T09:56:41.832Z,5.85
2023-05-09T09:59:09.942Z,5.00
2023-05-09T10:01:36.745Z,4.97
2023-05-09T10:04:03.846Z,5.03
2023-05-09T10:06:31.244Z,4.32
2023-05-09T10:08:57.892Z,3.95
2023-05-09T10:11:24.725Z,5.00
2023-05-09T10:13:53.618Z,4.60
2023-05-09T10:16:28.519Z,3.75
2023-05-09T10:19:03.559Z,4.00
2023-05-09T10:21:31.559Z,3.85
2023-05-09T10:23:59.478Z,3.75
2023-05-09T10:26:32.508Z,3.60
2023-05-09T10:29:07.972Z,4.15
2023-05-09T10:31:37.162Z,3.72
2023-05-09T10:34:09.986Z,3.63
2023-05-09T10:36:38.387Z,3.55
2023-05-09T10:39:05.885Z,3.20
2023-05-09T10:41:33.082Z,3.08
2023-05-09T10:44:01.502Z,4.00
2023-05-09T10:46:28.931Z,3.30
2023-05-09T10:48:57.443Z,3.95
2023-05-09T10:51:25.084Z,3.70
2023-05-09T10:53:52.166Z,3.85
2023-05-09T10:56:27.527Z,3.35
2023-05-09T10:58:54.776Z,4.03
2023-05-09T11:01:35.552Z,3.78
2023-05-09T11:04:10.083Z,4.60
2023-05-09T11:06:46.668Z,4.88
2023-05-09T11:09:28.381Z,4.88
2023-05-09T11:11:57.080Z,5.10
2023-05-09T11:14:31.881Z,4.97
2023-05-09T11:17:01.018Z,4.15
2023-05-09T11:19:37.437Z,4.82
2023-05-09T11:22:14.132Z,3.95
2023-05-09T11:24:44.410Z,4.13
2023-05-09T11:27:19.648Z,3.33
2023-05-09T11:29:51.597Z,3.40
2023-05-09T11:32:20.877Z,2.83
2023-05-09T11:34:48.271Z,3.53
2023-05-09T11:37:18.435Z,3.80
2023-05-09T11:40:01.561Z,2.60
2023-05-09T11:42:29.313Z,2.88
2023-05-09T11:44:58.624Z,2.42
2023-05-09T11:47:29.587Z,2.65
2023-05-09T11:49:56.568Z,3.15
2023-05-09T11:52:24.198Z,2.70
2023-05-09T11:54:51.420Z,2.65
2023-05-09T11:57:19.597Z,2.60
2023-05-09T11:59:46.463Z,1.90
2023-05-09T12:02:14.530Z,1.83
2023-05-09T12:04:44.265Z,1.80
2023-05-09T12:07:12.667Z,1.80
2023-05-09T12:09:40.603Z,1.73
2023-05-09T12:12:11.520Z,1.40
2023-05-09T12:14:39.691Z,1.45
2023-05-09T12:17:06.879Z,1.10
2023-05-09T12:19:34.349Z,1.27
2023-05-09T12:22:03.901Z,1.40
2023-05-09T12:24:31.480Z,1.73
2023-05-09T12:26:59.984Z,1.60
2023-05-09T12:29:27.254Z,1.40
2023-05-09T12:31:54.567Z,1.50
2023-05-09T12:34:21.589Z,1.80
2023-05-09T12:36:53.158Z,1.40
2023-05-09T12:39:23.185Z,1.40
2023-05-09T12:42:01.059Z,1.48
2023-05-09T12:44:29.873Z,1.40
2023-05-09T12:46:58.401Z,1.65
2023-05-09T12:49:26.029Z,1.70
2023-05-09T12:51:54.022Z,1.50
2023-05-09T12:54:23.659Z,2.00
2023-05-09T12:56:55.476Z,1.85
2023-05-09T12:59:23.989Z,1.80
2023-05-09T13:01:56.592Z,2.08
2023-05-09T13:04:25.301Z,1.70
2023-05-09T13:06:55.478Z,2.00
2023-05-09T13:09:24.469Z,1.83
2023-05-09T13:11:52.175Z,1.90
2023-05-09T13:14:21.802Z,1.55
2023-05-09T13:16:48.695Z,1.65
2023-05-09T13:19:16.439Z,1.50
2023-05-09T13:21:43.381Z,1.80
2023-05-09T13:24:10.139Z,1.40
2023-05-09T13:26:39.533Z,1.40
2023-05-09T13:29:06.292Z,1.75
2023-05-09T13:31:33.573Z,1.40
2023-05-09T13:34:00.419Z,1.40
2023-05-09T13:36:27.453Z,1.85
2023-05-09T13:38:54.344Z,1.95
2023-05-09T13:41:23.896Z,1.45
2023-05-09T13:43:52.265Z,1.52
2023-05-09T13:46:19.224Z,1.35
2023-05-09T13:48:47.937Z,1.77
2023-05-09T13:51:15.076Z,1.27
2023-05-09T13:53:41.876Z,1.60
2023-05-09T13:56:09.794Z,2.05
2023-05-09T13:58:36.951Z,1.55
2023-05-09T14:01:07.680Z,1.85
2023-05-09T14:03:34.761Z,1.40
2023-05-09T14:06:01.915Z,1.45
2023-05-09T14:08:34.157Z,1.40
2023-05-09T14:11:02.995Z,1.33
2023-05-09T14:13:32.033Z,1.70
2023-05-09T14:16:00.103Z,1.55
2023-05-09T14:18:30.515Z,1.70
2023-05-09T14:21:00.723Z,1.30
2023-05-09T14:23:31.775Z,1.27
2023-05-09T14:26:08.717Z,1.38
2023-05-09T14:28:52.661Z,1.20
2023-05-09T14:31:22.522Z,1.13
2023-05-09T14:33:52.637Z,1.42
2023-05-09T14:36:44.937Z,1.45
2023-05-09T14:41:53.690Z,1.30
2023-05-09T14:44:35.650Z,1.67
2023-05-09T14:47:10.993Z,2.10
2023-05-09T14:52:36.502Z,1.33
2023-05-09T14:58:30.969Z,1.70
2023-05-09T15:09:02.005Z,1.70
2023-05-09T15:17:38.684Z,1.80
2023-05-09T15:20:27.536Z,1.83
2023-05-09T15:26:44.304Z,1.30
2023-05-09T15:30:01.394Z,1.73
2023-05-09T15:32:37.624Z,2.00
2023-05-09T15:56:53.157Z,2.05
2023-05-09T15:59:19.852Z,2.00
2023-05-09T16:01:46.705Z,1.88
2023-05-09T16:04:14.082Z,2.25
2023-05-09T16:06:41.837Z,1.80
2023-05-09T16:09:09.240Z,1.95
2023-05-09T16:11:36.282Z,2.40
2023-05-09T16:14:08.130Z,2.17
2023-05-09T16:16:35.075Z,1.80
2023-05-09T16:19:03.581Z,2.28
2023-05-09T16:21:32.920Z,2.00
2023-05-09T16:24:02.882Z,2.20
2023-05-09T16:26:29.660Z,2.10
2023-05-09T16:28:56.372Z,1.92
2023-05-09T16:31:26.639Z,2.22
2023-05-09T16:33:54.088Z,2.00
2023-05-09T16:36:21.056Z,2.50
2023-05-09T16:38:47.850Z,1.70
2023-05-09T16:41:14.692Z,2.10
2023-05-09T16:43:41.563Z,2.28
2023-05-09T16:46:08.685Z,2.20
2023-05-09T16:48:36.686Z,2.17
2023-05-09T16:51:03.408Z,1.83
2023-05-09T16:53:30.105Z,1.80
2023-05-09T16:55:58.494Z,1.30
2023-05-09T16:58:25.348Z,1.90
2023-05-09T17:00:52.115Z,1.98
2023-05-09T17:03:18.794Z,1.42
2023-05-09T17:05:46.814Z,1.40
2023-05-09T17:08:13.548Z,1.60
2023-05-09T17:10:41.985Z,1.60
2023-05-09T17:13:09.068Z,1.75
2023-05-09T17:15:36.957Z,1.75
2023-05-09T17:18:04.476Z,1.40
2023-05-09T17:20:31.840Z,2.17
2023-05-09T17:22:59.875Z,2.13
2023-05-09T17:25:26.489Z,2.08
2023-05-09T17:27:53.757Z,1.30
2023-05-09T17:30:23.242Z,1.40
2023-05-09T17:32:50.259Z,1.60
2023-05-09T17:35:19.425Z,1.77
2023-05-09T17:37:46.380Z,1.90
2023-05-09T17:40:14.998Z,1.95
2023-05-09T17:42:42.274Z,1.60
2023-05-09T17:45:12.395Z,1.30
2023-05-09T17:47:39.495Z,1.73
2023-05-09T17:50:07.222Z,1.83
2023-05-09T17:52:34.288Z,1.95
2023-05-09T17:55:01.863Z,2.00
2023-05-09T17:57:29.939Z,1.48
2023-05-09T17:59:56.830Z,2.03
2023-05-09T18:02:24.226Z,1.75
2023-05-09T18:04:51.733Z,2.00
2023-05-09T18:07:18.414Z,1.55
2023-05-09T18:09:46.141Z,1.83
2023-05-09T18:12:12.869Z,2.10
2023-05-09T18:14:41.043Z,1.73
2023-05-09T18:17:07.912Z,1.80
2023-05-09T18:19:35.454Z,1.60
2023-05-09T18:22:02.266Z,1.70
2023-05-09T18:24:29.215Z,1.98
2023-05-09T18:26:55.842Z,1.63
2023-05-09T18:29:23.683Z,1.70
2023-05-09T18:31:52.098Z,1.67
2023-05-09T18:34:18.935Z,1.60
2023-05-09T18:36:47.062Z,1.45
2023-05-09T18:39:14.263Z,1.92
2023-05-09T18:41:42.952Z,1.65
2023-05-09T18:44:09.770Z,1.70
2023-05-09T18:46:36.768Z,2.25
2023-05-09T18:49:04.920Z,2.03
2023-05-09T18:51:31.721Z,2.10
2023-05-09T18:53:58.461Z,2.10
2023-05-09T18:56:25.579Z,2.47
2023-05-09T18:58:52.384Z,1.77
2023-05-09T19:01:20.083Z,1.90
2023-05-09T19:03:53.482Z,2.05
2023-05-09T19:06:24.058Z,1.90
2023-05-09T19:08:52.079Z,2.22
2023-05-09T19:11:18.780Z,2.60
2023-05-09T19:13:48.633Z,2.55
2023-05-09T19:16:17.190Z,2.60
2023-05-09T19:18:43.901Z,2.97
2023-05-09T19:21:13.141Z,2.67
2023-05-09T19:23:41.326Z,3.10
2023-05-09T19:26:08.440Z,3.10
2023-05-09T19:28:35.576Z,2.95
2023-05-09T19:31:02.272Z,3.17
2023-05-09T19:33:28.951Z,2.72
2023-05-09T19:35:55.972Z,3.00
2023-05-09T19:38:22.713Z,2.95
2023-05-09T19:40:51.188Z,2.42
2023-05-09T19:43:17.921Z,2.88
2023-05-09T19:45:44.722Z,2.80
2023-05-09T19:48:15.297Z,3.53
2023-05-09T19:50:42.536Z,2.85
2023-05-09T19:53:09.222Z,3.03
2023-05-09T19:55:36.038Z,3.35
2023-05-09T19:58:06.909Z,2.80
2023-05-09T20:00:36.020Z,3.08
2023-05-09T20:03:04.680Z,3.00
2023-05-09T20:08:15.836Z,3.20
2023-05-09T20:10:42.582Z,3.17
2023-05-09T20:13:10.823Z,3.17
2023-05-09T20:15:37.557Z,2.75
2023-05-09T20:18:07.157Z,3.05
2023-05-09T20:20:34.079Z,3.17
2023-05-09T20:23:03.856Z,3.47
2023-05-09T20:25:30.679Z,3.45
2023-05-09T20:27:57.472Z,4.13
2023-05-09T20:30:25.529Z,3.30
2023-05-09T20:32:52.659Z,3.70
2023-05-09T20:35:19.457Z,3.15
2023-05-09T20:37:46.451Z,4.00
2023-05-09T20:40:13.893Z,3.72
2023-05-09T20:42:40.982Z,4.07
2023-05-09T20:45:08.630Z,3.67
2023-05-09T20:47:36.905Z,4.00
2023-05-09T20:50:06.166Z,4.20
2023-05-09T20:52:32.827Z,3.65
2023-05-09T20:54:59.433Z,4.30
2023-05-09T20:57:26.212Z,4.40
2023-05-09T20:59:52.920Z,4.47
2023-05-09T21:02:20.211Z,3.85
2023-05-09T21:04:48.339Z,5.00
2023-05-09T21:07:19.508Z,4.57
2023-05-09T21:09:47.065Z,4.35
2023-05-09T21:12:13.728Z,4.90
2023-05-09T21:14:40.926Z,4.32
2023-05-09T21:17:07.777Z,4.22
2023-05-09T21:19:34.639Z,4.22
2023-05-09T21:22:02.974Z,4.57
2023-05-09T21:24:29.618Z,4.53
2023-05-09T21:26:56.257Z,4.20
2023-05-09T21:29:29.917Z,4.68
2023-05-09T21:31:56.503Z,4.47
2023-05-09T21:34:23.281Z,5.30
2023-05-09T21:36:51.851Z,4.93
2023-05-09T21:39:19.894Z,5.70
2023-05-09T21:41:46.577Z,3.33
2023-05-09T21:44:13.250Z,4.55
2023-05-09T21:46:41.205Z,5.22
2023-05-09T21:49:08.020Z,4.93
2023-05-09T21:51:35.020Z,4.45
2023-05-09T21:54:01.600Z,4.57
2023-05-09T21:56:29.792Z,4.80
2023-05-09T21:58:56.594Z,4.50
2023-05-09T22:01:23.244Z,3.42
2023-05-09T22:03:50.142Z,4.18
2023-05-09T22:06:16.871Z,4.38
2023-05-09T22:08:43.568Z,4.78
2023-05-09T22:11:10.991Z,4.75
2023-05-09T22:13:40.676Z,3.65
2023-05-09T22:16:07.769Z,4.32
2023-05-09T22:18:34.543Z,4.85
2023-05-09T22:21:01.469Z,4.65
2023-05-09T22:23:28.148Z,4.30
2023-05-09T22:25:54.843Z,4.18
2023-05-09T22:28:21.549Z,4.47
2023-05-09T22:30:49.715Z,4.25
2023-05-09T22:33:16.452Z,3.50
2023-05-09T22:35:43.135Z,4.07
2023-05-09T22:38:18.958Z,3.72
2023-05-09T22:40:45.629Z,3.85
2023-05-09T22:43:12.629Z,3.42
2023-05-09T22:45:39.397Z,3.00
2023-05-09T22:48:07.580Z,3.95
2023-05-09T22:50:35.098Z,3.33
2023-05-09T22:53:02.066Z,3.60
2023-05-09T22:55:28.904Z,4.28
2023-05-09T22:57:55.545Z,3.65
2023-05-09T23:00:22.430Z,3.80
2023-05-09T23:02:49.462Z,3.03
2023-05-09T23:05:17.976Z,4.65
2023-05-09T23:07:44.796Z,3.53
2023-05-09T23:10:11.639Z,4.25
2023-05-09T23:12:38.607Z,4.00
2023-05-09T23:15:07.388Z,4.68
2023-05-09T23:17:34.113Z,4.70
2023-05-09T23:20:01.582Z,4.20
2023-05-09T23:22:29.640Z,4.97
2023-05-09T23:24:56.500Z,5.07
2023-05-09T23:27:23.195Z,5.15
2023-05-09T23:29:49.801Z,5.07
2023-05-09T23:32:16.715Z,5.00
2023-05-09T23:34:43.438Z,4.68
2023-05-09T23:37:10.101Z,5.88
2023-05-09T23:39:38.138Z,6.40
2023-05-09T23:42:05.023Z,6.78
2023-05-09T23:44:31.794Z,6.95
2023-05-09T23:46:58.554Z,7.68
2023-05-09T23:49:25.230Z,7.65
2023-05-09T23:51:51.892Z,7.85
2023-05-09T23:54:18.717Z,8.70
2023-05-09T23:56:47.787Z,7.20
2023-05-09T23:59:14.440Z,7.38
